首页
METAR-TAF:

METAR-TAF

机场 :

香港, 中华人民共和国

香港國際機場

纬度: 22-19N, 经度: 113-55E, 海拔: 9米

当前天气观测

该预报发布于22分钟前的22:00 UTC
风速8节,风向
温度 24°C
湿度 78%
气压 1012 hPa
能見度: 7000
少量云层高于2300英尺
散云层高于3500英尺

METAR: VHHH 252200Z 09008KT 7000 FEW023 SCT035 24/20 Q1012 NOSIG

时间: 06:22 (22:22 UTC)

预报

该预报发布于5小时和22分钟前的17:00 UTC
预报有效从25日的 18点(UTC)到 26日的 24点(UTC)
风速10节,风向东转东南
能見度: 7000
少量云层高于1500英尺
散云层高于3000英尺

TAF: VHHH 251700Z 2518/2624 11010KT 7000 FEW015 SCT030 TX26/2606Z TN23/2523Z

超过4000个机场的气象观测和天气预报(METAR&TAF报告)。

可查询的气象台以黄色和红色小点在地图上表示。

将鼠标移到小点上方,可查看气象台名称。

然后点击查看天气观测和预报。

如需切换地图:点击带黑十字的绿色按钮放大地图;点击带横线的绿色按钮缩小地图;或者点击绿色箭头查看邻近地区的地图。


METAR-TAF: